createdAt,value
2024-03-07T04:53:07.712Z,7.30
2024-03-07T04:56:10.657Z,7.29
2024-03-07T04:59:13.532Z,7.20
2024-03-07T05:02:15.977Z,7.14
2024-03-07T05:05:24.568Z,7.13
2024-03-07T05:08:27.686Z,7.06
2024-03-07T05:11:33.059Z,7.11
2024-03-07T05:14:35.637Z,7.06
2024-03-07T05:17:40.191Z,6.95
2024-03-07T05:20:43.137Z,7.02
2024-03-07T05:23:45.416Z,6.99
2024-03-07T05:26:48.115Z,7.01
2024-03-07T05:29:50.401Z,7.08
2024-03-07T05:32:53.153Z,7.23
2024-03-07T05:36:03.854Z,7.29
2024-03-07T05:39:11.380Z,7.35
2024-03-07T05:42:15.507Z,7.43
2024-03-07T05:45:19.068Z,7.47
2024-03-07T05:48:21.484Z,7.62
2024-03-07T05:51:26.727Z,7.76
2024-03-07T05:54:30.571Z,7.80
2024-03-07T05:57:33.126Z,7.94
2024-03-07T06:00:36.123Z,7.98
2024-03-07T06:03:38.775Z,8.08
2024-03-07T06:06:42.593Z,8.23
2024-03-07T06:09:45.048Z,8.23
2024-03-07T06:15:52.558Z,8.32
2024-03-07T06:18:55.116Z,8.41
2024-03-07T06:21:57.543Z,8.39
2024-03-07T06:25:05.303Z,8.26
2024-03-07T06:28:10.672Z,8.40
2024-03-07T06:31:12.832Z,8.49
2024-03-07T06:34:15.847Z,8.52
2024-03-07T06:37:20.262Z,8.27
2024-03-07T06:40:23.509Z,8.29
2024-03-07T06:43:25.739Z,8.25
2024-03-07T06:46:29.287Z,8.31
2024-03-07T06:49:31.692Z,8.03
2024-03-07T06:52:34.253Z,8.09
2024-03-07T06:55:36.585Z,7.90
2024-03-07T06:58:38.990Z,7.92
2024-03-07T07:01:44.469Z,8.02
2024-03-07T07:04:51.674Z,8.13
2024-03-07T07:07:53.810Z,8.00
2024-03-07T07:10:57.095Z,7.98
2024-03-07T07:13:59.517Z,8.08
2024-03-07T07:17:01.955Z,8.05
2024-03-07T07:20:11.325Z,8.12
2024-03-07T07:23:14.368Z,8.12
2024-03-07T07:26:16.652Z,8.26
2024-03-07T07:29:19.679Z,8.26
2024-03-07T07:32:21.867Z,8.15
2024-03-07T07:35:25.355Z,8.23
2024-03-07T07:38:27.894Z,8.45
2024-03-07T07:41:32.832Z,8.30
2024-03-07T07:44:35.030Z,7.92
2024-03-07T07:47:45.388Z,7.81
2024-03-07T07:50:51.956Z,7.85
2024-03-07T07:53:58.022Z,7.91
2024-03-07T07:57:00.502Z,7.84
2024-03-07T08:00:03.807Z,7.97
2024-03-07T08:03:16.885Z,7.92
2024-03-07T08:06:20.150Z,7.89
2024-03-07T08:09:22.505Z,7.83
2024-03-07T08:12:25.001Z,7.87
2024-03-07T08:15:31.550Z,7.91
2024-03-07T08:18:34.023Z,8.13
2024-03-07T08:21:36.252Z,8.12
2024-03-07T08:24:38.624Z,8.30
2024-03-07T08:27:44.074Z,8.07
2024-03-07T08:31:01.150Z,8.26
2024-03-07T08:34:03.525Z,8.64
2024-03-07T08:37:05.930Z,8.51
2024-03-07T08:40:11.216Z,8.41
2024-03-07T08:43:13.400Z,8.33
2024-03-07T08:46:15.803Z,8.24
2024-03-07T08:49:18.685Z,8.08
2024-03-07T08:52:21.120Z,8.18
2024-03-07T08:55:27.690Z,8.37
2024-03-07T08:58:30.267Z,8.42
2024-03-07T09:01:32.451Z,8.36
2024-03-07T09:04:34.872Z,8.14
2024-03-07T09:07:37.268Z,8.28
2024-03-07T09:10:42.344Z,8.41
2024-03-07T09:13:44.492Z,8.50
2024-03-07T09:16:49.688Z,8.45
2024-03-07T09:19:51.806Z,8.59
2024-03-07T09:22:56.089Z,8.38
2024-03-07T09:26:00.057Z,8.30
2024-03-07T09:29:06.856Z,8.23
2024-03-07T09:32:09.880Z,8.04
2024-03-07T09:35:16.268Z,8.14
2024-03-07T09:38:18.579Z,8.25
2024-03-07T09:41:21.994Z,8.60
2024-03-07T09:44:27.119Z,8.61
2024-03-07T09:47:31.589Z,8.68
2024-03-07T09:50:33.962Z,8.88
2024-03-07T09:53:38.334Z,8.76
2024-03-07T09:56:42.068Z,8.90
2024-03-07T09:59:47.584Z,8.82
2024-03-07T10:02:55.468Z,8.84
2024-03-07T10:05:58.134Z,8.97
2024-03-07T10:09:01.018Z,8.90
2024-03-07T10:12:17.699Z,8.69
2024-03-07T10:15:20.407Z,8.43
2024-03-07T10:18:24.508Z,8.42
2024-03-07T10:21:26.819Z,8.46
2024-03-07T10:24:30.097Z,8.26
2024-03-07T10:27:32.317Z,8.26
2024-03-07T10:30:42.631Z,8.50
2024-03-07T10:33:46.811Z,8.54
2024-03-07T10:36:50.100Z,8.46
2024-03-07T10:39:52.686Z,8.51
2024-03-07T10:43:03.706Z,8.72
2024-03-07T10:46:09.565Z,8.84
2024-03-07T10:49:16.895Z,8.71
2024-03-07T10:52:31.223Z,8.50
2024-03-07T10:56:04.784Z,8.23
2024-03-07T10:59:20.078Z,8.24
2024-03-07T11:02:47.224Z,8.51
2024-03-07T11:05:50.179Z,8.68
2024-03-07T11:08:54.407Z,8.42
2024-03-07T11:11:59.325Z,8.44
2024-03-07T11:15:07.674Z,8.62
2024-03-07T11:18:11.246Z,8.81
2024-03-07T11:21:44.335Z,8.46
2024-03-07T11:25:01.946Z,8.50
2024-03-07T11:28:05.044Z,8.41
2024-03-07T11:31:26.649Z,8.53
2024-03-07T11:34:31.495Z,8.65
2024-03-07T11:45:46.205Z,8.63
2024-03-07T11:48:49.209Z,8.56
2024-03-07T11:51:52.290Z,8.52
2024-03-07T11:55:05.053Z,8.61
2024-03-07T11:58:10.703Z,8.80
2024-03-07T12:01:15.331Z,8.81
2024-03-07T12:04:18.039Z,9.07
2024-03-07T12:07:23.739Z,9.19
2024-03-07T12:10:26.593Z,9.04
2024-03-07T12:13:29.286Z,9.36
2024-03-07T12:16:32.894Z,9.64
2024-03-07T12:19:35.685Z,9.72
2024-03-07T12:22:38.518Z,9.68
2024-03-07T12:25:41.161Z,9.40
2024-03-07T12:28:46.964Z,9.14
2024-03-07T12:31:49.822Z,8.92
2024-03-07T12:34:53.990Z,8.83
2024-03-07T12:37:57.179Z,8.83
2024-03-07T12:41:18.409Z,8.86
2024-03-07T12:44:21.854Z,8.88
2024-03-07T12:47:26.879Z,8.82
2024-03-07T12:50:29.199Z,8.90
2024-03-07T12:53:32.655Z,8.64
2024-03-07T12:56:35.897Z,8.59
2024-03-07T12:59:44.167Z,8.78
2024-03-07T13:02:48.594Z,8.87
2024-03-07T13:05:51.056Z,8.67
2024-03-07T13:08:53.324Z,8.73
2024-03-07T13:11:56.070Z,8.71
2024-03-07T13:15:01.038Z,8.61
2024-03-07T13:18:06.211Z,8.60
2024-03-07T13:21:11.889Z,8.65
2024-03-07T13:24:15.633Z,8.73
2024-03-07T13:27:29.073Z,8.61
2024-03-07T13:30:31.735Z,8.54
2024-03-07T13:33:34.669Z,8.69
2024-03-07T13:36:38.932Z,8.59
2024-03-07T13:39:44.534Z,8.42
2024-03-07T13:42:47.088Z,8.71
2024-03-07T13:45:52.501Z,8.82
2024-03-07T13:48:55.032Z,8.84
2024-03-07T13:52:04.802Z,8.90
2024-03-07T13:55:10.010Z,9.03
2024-03-07T13:58:26.062Z,8.85
2024-03-07T14:01:46.831Z,8.80
2024-03-07T14:05:34.555Z,8.81
2024-03-07T14:08:58.922Z,8.71
2024-03-07T14:12:16.855Z,8.84
2024-03-07T14:15:43.924Z,8.79
2024-03-07T14:19:23.191Z,8.86
2024-03-07T14:22:38.828Z,8.67
2024-03-07T14:26:04.749Z,8.46
2024-03-07T14:29:21.133Z,8.43
2024-03-07T14:32:24.365Z,8.54
2024-03-07T14:35:34.840Z,8.46
2024-03-07T14:38:55.662Z,8.18
2024-03-07T14:42:02.345Z,8.14
2024-03-07T14:45:09.140Z,8.06
2024-03-07T14:48:15.847Z,8.14
2024-03-07T14:51:18.901Z,8.20
2024-03-07T14:54:23.806Z,8.26
2024-03-07T14:57:27.766Z,8.20
2024-03-07T15:00:37.708Z,8.11
2024-03-07T15:03:46.417Z,7.96
2024-03-07T15:06:48.779Z,7.98
2024-03-07T15:09:51.344Z,8.07
2024-03-07T15:12:54.181Z,8.05
2024-03-07T15:15:57.492Z,7.81
2024-03-07T15:18:59.942Z,7.71
2024-03-07T15:22:04.338Z,7.71
2024-03-07T15:25:13.492Z,7.78
2024-03-07T15:28:15.956Z,7.83
2024-03-07T15:31:20.508Z,7.88
2024-03-07T15:34:23.456Z,7.85
2024-03-07T15:37:26.628Z,7.85
2024-03-07T15:40:33.547Z,7.88
2024-03-07T15:43:35.806Z,7.85
2024-03-07T15:46:39.033Z,7.93
2024-03-07T15:49:42.304Z,7.79
2024-03-07T15:52:45.805Z,7.78
2024-03-07T15:55:48.793Z,7.75
2024-03-07T15:58:51.248Z,7.73
2024-03-07T16:01:53.524Z,7.50
2024-03-07T16:04:58.063Z,7.57
2024-03-07T16:08:01.731Z,7.57
2024-03-07T16:11:04.481Z,7.30
2024-03-07T16:14:06.698Z,7.38
